Time;durP1;ratioP1;P1;durP2;ratioP2;P2;SDS_P1;SDS_P2;PMS_P1;PMS_P2;Temp;Humidity;BMP_temperature;BMP_pressure;BME280_temperature;BME280_humidity;BME280_pressure;Samples;Min_cycle;Max_cycle;Signal;HPM_P1;HPM_P2
2021/07/27 00:00:10;;;;;;;26.65;12.85;;;;;;;;;;5050381;28;20022;-85
2021/07/27 00:02:35;;;;;;;23.65;11.80;;;;;;;;;;5050615;28;20029;-85
2021/07/27 00:05:00;;;;;;;23.15;12.05;;;;;;;;;;5051796;28;20021;-85
2021/07/27 00:07:26;;;;;;;23.80;12.55;;;;;;;;;;5050502;28;20029;-85
2021/07/27 00:09:51;;;;;;;25.27;12.55;;;;;;;;;;5050126;28;20388;-85
2021/07/27 00:12:16;;;;;;;25.27;12.00;;;;;;;;;;5051690;28;20021;-85
2021/07/27 00:14:41;;;;;;;23.15;11.55;;;;;;;;;;5050557;28;20021;-85
2021/07/27 00:17:06;;;;;;;27.30;12.63;;;;;;;;;;5055807;28;20514;-85
2021/07/27 00:19:32;;;;;;;24.80;12.23;;;;;;;;;;5054304;28;20025;-86
2021/07/27 00:21:57;;;;;;;23.52;12.77;;;;;;;;;;5053966;28;20034;-85
2021/07/27 00:24:26;;;;;;;21.45;10.85;;;;;;;;;;5054225;28;20055;-85
2021/07/27 00:26:51;;;;;;;26.58;11.93;;;;;;;;;;5053463;28;20156;-84
2021/07/27 00:29:16;;;;;;;24.00;11.73;;;;;;;;;;5053827;28;20104;-85
2021/07/27 00:31:41;;;;;;;22.33;11.75;;;;;;;;;;5054825;28;20104;-85
2021/07/27 00:34:07;;;;;;;23.45;11.40;;;;;;;;;;5055212;28;20015;-85
2021/07/27 00:36:32;;;;;;;24.52;11.30;;;;;;;;;;5053856;28;20023;-85
2021/07/27 00:38:57;;;;;;;23.50;12.20;;;;;;;;;;5053280;28;20020;-85
2021/07/27 00:41:22;;;;;;;21.60;11.30;;;;;;;;;;5053845;28;20427;-84
2021/07/27 00:43:48;;;;;;;21.65;10.90;;;;;;;;;;5053989;28;20119;-85
2021/07/27 00:46:13;;;;;;;20.17;9.93;;;;;;;;;;5053684;28;20028;-85
2021/07/27 00:48:38;;;;;;;21.52;11.13;;;;;;;;;;5055214;28;20499;-85
2021/07/27 00:51:03;;;;;;;20.60;10.18;;;;;;;;;;5052938;28;20107;-85
2021/07/27 00:53:29;;;;;;;24.77;11.23;;;;;;;;;;5053099;28;20021;-85
2021/07/27 00:55:54;;;;;;;18.70;10.23;;;;;;;;;;5053630;28;20119;-85
2021/07/27 00:58:19;;;;;;;22.73;10.90;;;;;;;;;;5053531;28;20021;-85
2021/07/27 01:00:44;;;;;;;20.50;9.88;;;;;;;;;;5053614;28;20025;-85
2021/07/27 01:03:10;;;;;;;18.00;9.63;;;;;;;;;;5054531;28;20017;-85
2021/07/27 01:05:35;;;;;;;19.17;9.57;;;;;;;;;;5054793;28;20098;-85
2021/07/27 01:08:00;;;;;;;18.83;9.98;;;;;;;;;;5052863;28;20100;-85
2021/07/27 01:10:26;;;;;;;22.27;9.77;;;;;;;;;;5053254;28;20387;-85
2021/07/27 01:12:51;;;;;;;21.05;9.77;;;;;;;;;;5054466;28;20037;-85
2021/07/27 01:15:16;;;;;;;18.75;9.55;;;;;;;;;;5053179;28;20427;-85
2021/07/27 01:17:42;;;;;;;17.65;9.80;;;;;;;;;;5054251;28;20056;-85
2021/07/27 01:39:41;;;;;;;14.63;8.35;;;;;;;;;;5053850;28;20043;-85
2021/07/27 01:42:08;;;;;;;18.23;9.00;;;;;;;;;;5050542;28;20111;-85
2021/07/27 01:44:42;;;;;;;19.17;9.00;;;;;;;;;;5048031;28;20021;-85
2021/07/27 01:47:07;;;;;;;21.02;9.25;;;;;;;;;;5052572;28;20468;-85
2021/07/27 01:49:32;;;;;;;25.75;10.43;;;;;;;;;;5052474;28;20031;-85
2021/07/27 01:51:57;;;;;;;20.73;10.20;;;;;;;;;;5052271;28;20045;-85
2021/07/27 01:54:29;;;;;;;23.02;9.98;;;;;;;;;;5052502;28;20070;-85
2021/07/27 01:56:55;;;;;;;20.58;10.18;;;;;;;;;;5052423;28;20013;-85
2021/07/27 01:59:20;;;;;;;23.27;11.50;;;;;;;;;;5052071;28;20040;-84
2021/07/27 02:01:46;;;;;;;22.10;10.75;;;;;;;;;;5052488;28;20025;-85
2021/07/27 02:04:11;;;;;;;25.73;11.55;;;;;;;;;;5053692;28;20037;-85
2021/07/27 02:06:38;;;;;;;27.85;11.43;;;;;;;;;;5053450;28;20392;-85
2021/07/27 02:09:06;;;;;;;21.58;10.80;;;;;;;;;;5052276;28;20112;-85
2021/07/27 02:11:39;;;;;;;23.77;11.32;;;;;;;;;;5051840;28;20390;-85
2021/07/27 02:14:04;;;;;;;24.67;11.77;;;;;;;;;;5052362;28;20049;-84
2021/07/27 02:16:29;;;;;;;26.38;11.18;;;;;;;;;;5051818;28;20457;-85
2021/07/27 02:18:58;;;;;;;24.63;10.68;;;;;;;;;;5053127;28;20032;-85
2021/07/27 02:21:23;;;;;;;20.75;10.30;;;;;;;;;;5051649;28;20017;-85
2021/07/27 02:23:48;;;;;;;22.33;10.88;;;;;;;;;;5051865;28;20033;-85
2021/07/27 02:26:14;;;;;;;24.63;11.32;;;;;;;;;;5053096;28;20616;-85
2021/07/27 02:28:39;;;;;;;19.13;10.88;;;;;;;;;;5052466;28;20057;-84
2021/07/27 02:31:07;;;;;;;20.55;10.93;;;;;;;;;;5052698;28;20023;-84
2021/07/27 02:33:35;;;;;;;23.90;11.57;;;;;;;;;;5051836;28;20071;-85
2021/07/27 02:36:00;;;;;;;24.75;12.18;;;;;;;;;;5051514;28;20025;-85
2021/07/27 02:38:26;;;;;;;28.60;12.00;;;;;;;;;;5050951;28;20476;-85
2021/07/27 02:40:51;;;;;;;23.38;11.57;;;;;;;;;;5052408;28;20032;-85
2021/07/27 02:43:16;;;;;;;22.15;11.63;;;;;;;;;;5051554;28;20017;-85
2021/07/27 02:45:41;;;;;;;28.75;11.50;;;;;;;;;;5052610;28;20036;-85
2021/07/27 02:48:07;;;;;;;22.90;10.50;;;;;;;;;;5051419;28;20527;-85
2021/07/27 02:50:35;;;;;;;31.02;11.65;;;;;;;;;;5051321;28;20116;-85
2021/07/27 02:53:01;;;;;;;26.05;11.30;;;;;;;;;;5050970;28;20028;-85
2021/07/27 02:55:26;;;;;;;20.65;11.05;;;;;;;;;;5052632;28;20009;-85
2021/07/27 02:57:51;;;;;;;24.08;11.65;;;;;;;;;;5045186;28;20761;-85
2021/07/27 03:00:17;;;;;;;23.75;11.88;;;;;;;;;;5083433;28;20044;-85
2021/07/27 03:02:44;;;;;;;26.13;11.77;;;;;;;;;;5051247;28;20027;-85
2021/07/27 03:05:10;;;;;;;24.83;12.13;;;;;;;;;;5052098;28;20372;-85
2021/07/27 03:10:17;;;;;;;25.02;10.88;;;;;;;;;;5052789;28;20025;-85
2021/07/27 03:12:42;;;;;;;25.23;10.80;;;;;;;;;;5050716;28;20078;-85
2021/07/27 03:15:08;;;;;;;21.17;11.13;;;;;;;;;;5070460;28;20370;-86
2021/07/27 03:17:33;;;;;;;23.88;10.52;;;;;;;;;;5049317;28;20365;-85
2021/07/27 03:19:58;;;;;;;20.65;10.40;;;;;;;;;;5050755;28;20031;-85
2021/07/27 03:22:23;;;;;;;21.38;10.45;;;;;;;;;;5051535;28;20337;-86
2021/07/27 03:24:49;;;;;;;21.95;10.77;;;;;;;;;;5050272;28;20025;-85
2021/07/27 03:27:14;;;;;;;22.33;11.32;;;;;;;;;;5052098;28;20029;-84
2021/07/27 03:29:39;;;;;;;26.50;11.48;;;;;;;;;;5049511;28;20423;-85
2021/07/27 03:32:04;;;;;;;23.67;11.25;;;;;;;;;;5051719;28;20070;-85
2021/07/27 03:34:30;;;;;;;30.98;12.57;;;;;;;;;;5050499;28;20028;-85
2021/07/27 03:36:55;;;;;;;27.35;13.30;;;;;;;;;;5049683;28;20086;-85
2021/07/27 03:39:20;;;;;;;27.90;12.82;;;;;;;;;;5050427;28;20052;-86
2021/07/27 03:41:45;;;;;;;23.52;11.32;;;;;;;;;;5049834;28;20074;-85
2021/07/27 03:44:10;;;;;;;22.20;11.15;;;;;;;;;;5050264;28;20556;-85
2021/07/27 03:46:36;;;;;;;21.13;11.70;;;;;;;;;;5051789;28;20084;-85
2021/07/27 03:49:01;;;;;;;23.35;11.80;;;;;;;;;;5083411;28;20116;-85
2021/07/27 03:51:26;;;;;;;24.13;11.65;;;;;;;;;;5053761;28;20021;-85
2021/07/27 03:53:51;;;;;;;25.25;12.43;;;;;;;;;;5054196;28;20108;-85
2021/07/27 03:56:16;;;;;;;27.48;11.95;;;;;;;;;;5054094;28;20130;-84
2021/07/27 03:58:43;;;;;;;29.90;12.35;;;;;;;;;;5053917;28;20025;-85
2021/07/27 04:01:08;;;;;;;25.70;11.77;;;;;;;;;;5078960;28;20029;-84
2021/07/27 04:03:33;;;;;;;28.90;11.43;;;;;;;;;;5054127;28;20473;-85
2021/07/27 04:05:58;;;;;;;23.17;11.82;;;;;;;;;;5048451;28;20030;-85
2021/07/27 04:08:24;;;;;;;23.17;10.98;;;;;;;;;;5068341;28;20219;-86
2021/07/27 04:10:50;;;;;;;24.77;11.05;;;;;;;;;;5055081;28;20013;-85
2021/07/27 04:13:15;;;;;;;25.27;11.20;;;;;;;;;;5079056;28;20026;-85
2021/07/27 04:15:41;;;;;;;23.52;11.35;;;;;;;;;;5055025;28;20044;-85
2021/07/27 04:18:06;;;;;;;23.08;11.40;;;;;;;;;;5086890;28;20031;-85
2021/07/27 04:20:31;;;;;;;28.17;12.38;;;;;;;;;;5054757;28;20109;-85
2021/07/27 04:22:57;;;;;;;23.42;11.15;;;;;;;;;;5053695;28;20025;-85
2021/07/27 04:25:22;;;;;;;25.13;12.40;;;;;;;;;;5053779;28;20111;-85
2021/07/27 04:27:47;;;;;;;24.60;11.80;;;;;;;;;;5054406;28;20029;-85
2021/07/27 04:30:12;;;;;;;28.73;12.68;;;;;;;;;;5053415;28;20020;-85
2021/07/27 04:32:37;;;;;;;31.02;13.25;;;;;;;;;;5054069;28;20025;-85
2021/07/27 04:35:03;;;;;;;29.35;11.77;;;;;;;;;;5053422;28;20013;-85
2021/07/27 04:37:28;;;;;;;23.55;12.15;;;;;;;;;;5053423;28;20046;-85
2021/07/27 04:39:53;;;;;;;27.63;12.25;;;;;;;;;;5054342;28;20470;-85
2021/07/27 04:42:19;;;;;;;29.35;12.10;;;;;;;;;;5053346;28;20013;-86
2021/07/27 04:44:44;;;;;;;25.00;12.02;;;;;;;;;;5053258;28;20037;-85
2021/07/27 04:47:09;;;;;;;28.83;13.13;;;;;;;;;;5053957;28;20045;-85
2021/07/27 04:49:34;;;;;;;26.30;11.43;;;;;;;;;;5053262;28;20035;-85
2021/07/27 04:52:00;;;;;;;26.88;12.90;;;;;;;;;;5054040;28;20013;-86
2021/07/27 04:54:30;;;;;;;23.27;12.18;;;;;;;;;;5054631;28;20372;-85
2021/07/27 04:56:55;;;;;;;26.95;12.07;;;;;;;;;;5052790;28;20033;-86
2021/07/27 04:59:21;;;;;;;23.35;11.85;;;;;;;;;;5052447;28;20037;-85
2021/07/27 05:01:46;;;;;;;29.33;12.43;;;;;;;;;;5053510;28;20036;-85
2021/07/27 05:04:11;;;;;;;29.13;11.68;;;;;;;;;;5077932;28;20177;-85
2021/07/27 05:06:37;;;;;;;31.00;12.48;;;;;;;;;;5053986;28;20376;-85
2021/07/27 05:09:02;;;;;;;25.27;11.60;;;;;;;;;;5052629;28;20116;-85
2021/07/27 05:11:27;;;;;;;25.15;11.63;;;;;;;;;;5085701;28;20021;-85
2021/07/27 05:13:54;;;;;;;28.42;11.90;;;;;;;;;;5052869;28;20024;-85
2021/07/27 05:16:20;;;;;;;26.60;11.88;;;;;;;;;;5085503;28;20526;-85
2021/07/27 05:18:45;;;;;;;26.50;12.38;;;;;;;;;;5052745;28;20029;-85
2021/07/27 05:21:11;;;;;;;18.63;10.13;;;;;;;;;;5052651;28;20555;-86
2021/07/27 05:23:36;;;;;;;24.42;11.48;;;;;;;;;;5052512;28;20025;-85
2021/07/27 05:26:03;;;;;;;28.58;12.43;;;;;;;;;;5053961;28;20048;-85
2021/07/27 05:28:28;;;;;;;28.05;12.15;;;;;;;;;;5053185;28;20376;-87
2021/07/27 05:30:53;;;;;;;25.30;12.65;;;;;;;;;;5052179;28;20032;-87
2021/07/27 05:33:19;;;;;;;27.98;10.98;;;;;;;;;;5053251;28;20013;-87
2021/07/27 05:35:44;;;;;;;26.70;12.30;;;;;;;;;;5051969;28;20021;-87
2021/07/27 05:38:09;;;;;;;24.85;12.18;;;;;;;;;;5052449;28;20652;-87
2021/07/27 05:40:34;;;;;;;26.05;11.90;;;;;;;;;;5052415;28;20025;-87
2021/07/27 05:42:59;;;;;;;20.45;11.20;;;;;;;;;;5053189;28;20025;-87
2021/07/27 05:45:25;;;;;;;28.10;12.32;;;;;;;;;;5049091;28;20396;-87
2021/07/27 05:47:51;;;;;;;26.58;12.00;;;;;;;;;;5051409;28;20033;-86
2021/07/27 05:50:17;;;;;;;20.50;10.82;;;;;;;;;;5051696;28;20028;-86
2021/07/27 05:52:42;;;;;;;24.02;10.88;;;;;;;;;;5052396;28;20025;-87
2021/07/27 05:55:07;;;;;;;21.52;11.48;;;;;;;;;;5050949;28;20052;-86
2021/07/27 05:57:32;;;;;;;24.90;11.30;;;;;;;;;;5052401;28;20104;-86
2021/07/27 05:59:57;;;;;;;21.58;10.55;;;;;;;;;;5051539;28;20488;-87
2021/07/27 06:02:23;;;;;;;19.25;10.38;;;;;;;;;;5051430;28;20025;-87
2021/07/27 06:04:48;;;;;;;20.17;9.90;;;;;;;;;;5050468;28;20057;-87
2021/07/27 06:07:14;;;;;;;19.00;9.88;;;;;;;;;;5050964;28;20035;-87
2021/07/27 06:09:39;;;;;;;19.58;10.02;;;;;;;;;;5051955;28;20025;-88
2021/07/27 06:12:04;;;;;;;22.85;10.38;;;;;;;;;;5051777;28;20028;-87
2021/07/27 06:14:29;;;;;;;21.27;10.20;;;;;;;;;;5050513;28;20029;-86
2021/07/27 06:16:55;;;;;;;20.80;10.82;;;;;;;;;;5051902;28;20027;-87
2021/07/27 06:19:20;;;;;;;23.30;10.63;;;;;;;;;;5052902;28;20029;-86
2021/07/27 06:21:45;;;;;;;21.40;11.10;;;;;;;;;;5051080;28;20116;-87
2021/07/27 06:24:11;;;;;;;20.95;10.45;;;;;;;;;;5051727;28;20472;-87
2021/07/27 06:26:36;;;;;;;23.63;11.40;;;;;;;;;;5052127;28;20407;-86
2021/07/27 06:29:03;;;;;;;24.65;10.88;;;;;;;;;;5052739;28;20074;-86
2021/07/27 06:31:28;;;;;;;21.88;11.63;;;;;;;;;;5051671;28;20491;-87
2021/07/27 06:33:53;;;;;;;30.10;11.57;;;;;;;;;;5052809;28;20017;-87
2021/07/27 06:36:19;;;;;;;21.02;11.68;;;;;;;;;;5051434;28;20488;-86
2021/07/27 06:38:44;;;;;;;24.08;11.13;;;;;;;;;;5068545;28;20028;-86
2021/07/27 06:41:10;;;;;;;27.00;11.70;;;;;;;;;;5051273;28;20025;-85
2021/07/27 06:43:35;;;;;;;20.27;11.02;;;;;;;;;;5085090;28;20069;-87
2021/07/27 06:46:00;;;;;;;22.00;11.10;;;;;;;;;;5051585;28;20029;-86
2021/07/27 06:48:26;;;;;;;22.77;11.55;;;;;;;;;;5050916;28;20484;-86
2021/07/27 06:50:51;;;;;;;20.73;11.43;;;;;;;;;;5051373;28;20031;-86
2021/07/27 06:53:17;;;;;;;22.13;11.25;;;;;;;;;;5051021;28;20055;-86
2021/07/27 06:55:42;;;;;;;23.33;11.50;;;;;;;;;;5051125;28;20376;-87
2021/07/27 06:58:07;;;;;;;24.25;12.52;;;;;;;;;;5051064;28;20036;-86
2021/07/27 07:00:33;;;;;;;20.33;11.55;;;;;;;;;;5051233;28;20020;-86
2021/07/27 07:02:58;;;;;;;24.20;12.38;;;;;;;;;;5050469;28;20029;-87
2021/07/27 07:05:23;;;;;;;22.02;12.05;;;;;;;;;;5050597;28;20104;-86
2021/07/27 07:07:48;;;;;;;22.17;11.50;;;;;;;;;;5084662;28;20122;-86
2021/07/27 07:10:13;;;;;;;24.48;12.93;;;;;;;;;;5050999;28;20422;-86
2021/07/27 07:12:39;;;;;;;23.58;12.48;;;;;;;;;;5050841;28;20583;-86
2021/07/27 07:15:04;;;;;;;26.80;12.65;;;;;;;;;;5052269;28;20147;-87
2021/07/27 07:17:30;;;;;;;28.35;12.55;;;;;;;;;;5052041;28;20158;-88
2021/07/27 07:19:55;;;;;;;25.13;13.00;;;;;;;;;;5051735;28;20021;-88
2021/07/27 07:22:20;;;;;;;21.15;11.57;;;;;;;;;;5051010;28;20111;-88
2021/07/27 07:24:46;;;;;;;22.63;11.90;;;;;;;;;;5084579;28;20031;-87
2021/07/27 07:27:11;;;;;;;25.83;12.93;;;;;;;;;;5051436;28;20472;-88
2021/07/27 07:29:37;;;;;;;30.58;13.27;;;;;;;;;;5051197;28;20017;-88
2021/07/27 07:32:02;;;;;;;28.80;12.70;;;;;;;;;;5048141;28;20037;-88
2021/07/27 07:34:27;;;;;;;28.40;13.25;;;;;;;;;;5039127;28;20040;-88
2021/07/27 07:36:53;;;;;;;22.15;12.05;;;;;;;;;;5084731;28;20084;-88
2021/07/27 07:39:18;;;;;;;22.90;11.63;;;;;;;;;;5051191;28;20534;-89
2021/07/27 07:41:43;;;;;;;24.45;12.02;;;;;;;;;;5051082;28;20096;-88
2021/07/27 07:44:09;;;;;;;31.73;13.70;;;;;;;;;;5051253;28;20025;-88
2021/07/27 07:46:34;;;;;;;27.50;11.30;;;;;;;;;;5051173;28;20020;-88
2021/07/27 07:49:00;;;;;;;25.50;10.77;;;;;;;;;;5080427;28;20033;-88
2021/07/27 07:51:26;;;;;;;25.50;12.82;;;;;;;;;;5051149;28;20472;-88
2021/07/27 07:53:51;;;;;;;25.65;11.50;;;;;;;;;;5051227;28;20025;-89
2021/07/27 07:56:16;;;;;;;24.33;12.05;;;;;;;;;;5051530;28;20520;-88
2021/07/27 07:58:41;;;;;;;23.70;12.85;;;;;;;;;;5039563;28;20041;-88
2021/07/27 08:01:07;;;;;;;22.67;12.00;;;;;;;;;;5051007;28;20070;-88
2021/07/27 08:03:32;;;;;;;23.75;11.55;;;;;;;;;;5051168;28;20013;-88
2021/07/27 08:05:58;;;;;;;25.40;12.27;;;;;;;;;;5051930;28;20430;-88
2021/07/27 08:08:23;;;;;;;20.30;11.68;;;;;;;;;;5049864;28;20032;-88
2021/07/27 08:10:48;;;;;;;19.95;10.30;;;;;;;;;;5050657;28;20026;-88
2021/07/27 08:13:13;;;;;;;20.95;10.98;;;;;;;;;;5076720;28;20025;-88
2021/07/27 08:15:39;;;;;;;19.75;11.43;;;;;;;;;;5050503;28;20021;-88
2021/07/27 08:18:04;;;;;;;19.23;9.57;;;;;;;;;;5083543;28;20052;-87
2021/07/27 08:20:32;;;;;;;20.30;10.70;;;;;;;;;;5050804;28;20059;-89
2021/07/27 08:22:58;;;;;;;18.70;10.18;;;;;;;;;;5043607;28;20048;-88
2021/07/27 08:25:23;;;;;;;21.58;9.98;;;;;;;;;;5076795;28;20025;-89
2021/07/27 08:27:48;;;;;;;17.23;10.20;;;;;;;;;;5051281;28;20033;-88
2021/07/27 08:30:15;;;;;;;18.60;10.45;;;;;;;;;;5050539;28;20028;-89
2021/07/27 08:32:44;;;;;;;17.88;11.07;;;;;;;;;;5050584;28;20025;-88
2021/07/27 08:35:09;;;;;;;16.70;10.23;;;;;;;;;;5051053;28;20024;-89
2021/07/27 08:37:34;;;;;;;19.95;10.68;;;;;;;;;;5087972;28;20097;-89
2021/07/27 08:40:00;;;;;;;21.92;10.18;;;;;;;;;;5082578;28;20380;-89
2021/07/27 08:42:28;;;;;;;17.48;8.15;;;;;;;;;;5053752;28;20472;-89
2021/07/27 08:44:57;;;;;;;18.95;9.52;;;;;;;;;;5053565;28;20369;-89
2021/07/27 08:47:22;;;;;;;17.92;9.98;;;;;;;;;;5055118;28;20025;-89
2021/07/27 08:49:47;;;;;;;17.58;10.00;;;;;;;;;;5053136;28;20388;-89
2021/07/27 08:52:12;;;;;;;20.70;10.13;;;;;;;;;;5048624;28;20427;-89
2021/07/27 08:54:43;;;;;;;15.23;9.57;;;;;;;;;;5053764;28;20013;-88
2021/07/27 08:57:12;;;;;;;15.65;9.90;;;;;;;;;;5054033;28;20468;-89
2021/07/27 08:59:38;;;;;;;16.50;9.88;;;;;;;;;;5054166;28;20108;-89
2021/07/27 09:02:03;;;;;;;19.05;11.07;;;;;;;;;;5054271;28;20052;-89
2021/07/27 09:04:29;;;;;;;11.68;6.70;;;;;;;;;;5046812;28;20025;-89
2021/07/27 09:07:00;;;;;;;18.23;10.68;;;;;;;;;;5053108;28;20027;-89
2021/07/27 09:09:32;;;;;;;15.85;10.45;;;;;;;;;;5052441;28;20017;-89
2021/07/27 09:12:09;;;;;;;21.02;11.02;;;;;;;;;;5047625;28;20048;-88
2021/07/27 09:14:40;;;;;;;18.40;10.32;;;;;;;;;;5052975;28;20021;-89
2021/07/27 09:17:06;;;;;;;20.52;9.63;;;;;;;;;;5087581;28;20039;-89
2021/07/27 09:19:40;;;;;;;24.27;9.82;;;;;;;;;;5053416;28;20104;-89
2021/07/27 09:22:06;;;;;;;16.42;10.63;;;;;;;;;;5048017;28;20037;-89
2021/07/27 09:24:32;;;;;;;17.30;8.68;;;;;;;;;;5051852;28;20494;-89
2021/07/27 09:27:05;;;;;;;18.20;11.18;;;;;;;;;;5054787;28;20021;-89
2021/07/27 09:29:30;;;;;;;18.08;10.98;;;;;;;;;;5053782;28;20028;-89
2021/07/27 09:31:57;;;;;;;17.67;8.93;;;;;;;;;;5050443;28;20018;-90
2021/07/27 09:34:25;;;;;;;19.70;10.60;;;;;;;;;;5044768;28;20029;-88
2021/07/27 09:37:04;;;;;;;19.83;10.23;;;;;;;;;;5078569;28;20021;-88
2021/07/27 09:39:29;;;;;;;16.73;7.32;;;;;;;;;;5045251;28;20025;-90
2021/07/27 09:42:01;;;;;;;15.57;9.98;;;;;;;;;;5054456;28;20028;-89
2021/07/27 09:44:27;;;;;;;;;;;;;;;;;;5054641;28;20031;-89
2021/07/27 09:46:53;;;;;;;23.20;11.00;;;;;;;;;;5053307;28;19995;-89
2021/07/27 09:49:18;;;;;;;17.42;10.68;;;;;;;;;;5044831;28;20112;-89
2021/07/27 09:51:44;;;;;;;21.33;11.70;;;;;;;;;;5054030;28;20100;-89
2021/07/27 09:54:11;;;;;;;20.58;10.45;;;;;;;;;;5052845;28;20029;-89
2021/07/27 09:56:36;;;;;;;22.25;11.70;;;;;;;;;;5053113;28;20029;-89
2021/07/27 09:59:01;;;;;;;18.45;10.75;;;;;;;;;;5053976;28;20031;-89
2021/07/27 10:01:27;;;;;;;16.95;10.25;;;;;;;;;;5048373;28;20044;-88
2021/07/27 10:04:00;;;;;;;19.05;11.07;;;;;;;;;;5038456;28;20022;-89
2021/07/27 10:06:26;;;;;;;16.50;7.15;;;;;;;;;;5045945;28;20035;-89
2021/07/27 10:08:54;;;;;;;18.38;10.80;;;;;;;;;;5053695;28;20520;-89
2021/07/27 10:11:20;;;;;;;17.33;10.00;;;;;;;;;;5046415;28;20018;-89
2021/07/27 10:13:46;;;;;;;17.50;10.50;;;;;;;;;;5052299;28;20017;-89
2021/07/27 10:16:21;;;;;;;17.90;9.57;;;;;;;;;;5052238;28;20170;-89
2021/07/27 10:18:47;;;;;;;21.38;10.55;;;;;;;;;;5045206;28;21596;-88
2021/07/27 10:21:23;;;;;;;19.80;10.82;;;;;;;;;;5052217;28;20017;-89
2021/07/27 10:23:48;;;;;;;15.43;9.10;;;;;;;;;;5076155;28;20009;-89
2021/07/27 10:26:24;;;;;;;18.98;11.00;;;;;;;;;;5051960;28;20594;-89
2021/07/27 10:28:53;;;;;;;18.75;10.48;;;;;;;;;;5085198;28;20763;-89
2021/07/27 10:31:18;;;;;;;20.73;10.95;;;;;;;;;;5052481;28;20483;-89
2021/07/27 10:33:51;;;;;;;20.98;9.90;;;;;;;;;;5069620;28;20014;-89
2021/07/27 10:36:24;;;;;;;19.30;9.90;;;;;;;;;;5053358;28;20147;-89
2021/07/27 10:38:49;;;;;;;20.27;10.13;;;;;;;;;;5051833;28;20036;-89
2021/07/27 10:41:15;;;;;;;18.67;9.73;;;;;;;;;;5053053;28;20473;-89
2021/07/27 10:43:40;;;;;;;20.40;10.63;;;;;;;;;;5051363;28;20013;-89
2021/07/27 10:46:10;;;;;;;16.80;9.43;;;;;;;;;;5051404;28;20021;-89
2021/07/27 10:48:35;;;;;;;20.20;10.00;;;;;;;;;;5051566;28;20103;-89
2021/07/27 10:51:02;;;;;;;17.80;9.93;;;;;;;;;;5047029;28;20021;-88
2021/07/27 10:53:30;;;;;;;19.77;9.73;;;;;;;;;;5052008;28;20451;-89
2021/07/27 10:55:57;;;;;;;16.50;9.63;;;;;;;;;;5053010;28;20025;-89
2021/07/27 10:58:23;;;;;;;23.38;10.80;;;;;;;;;;5051241;28;20404;-88
2021/07/27 11:00:49;;;;;;;22.63;11.02;;;;;;;;;;5085006;28;20062;-89
2021/07/27 11:03:14;;;;;;;19.60;10.73;;;;;;;;;;5052259;28;20056;-89
2021/07/27 11:05:39;;;;;;;18.27;11.05;;;;;;;;;;5081324;28;20472;-89
2021/07/27 11:08:04;;;;;;;21.77;10.13;;;;;;;;;;5045164;28;20028;-89
2021/07/27 11:10:30;;;;;;;19.85;10.93;;;;;;;;;;5051289;28;20119;-88
2021/07/27 11:12:58;;;;;;;14.20;6.68;;;;;;;;;;5085193;28;20039;-88
2021/07/27 11:15:24;;;;;;;19.63;9.90;;;;;;;;;;5052374;28;20017;-89
2021/07/27 11:18:02;;;;;;;19.80;10.27;;;;;;;;;;5052258;28;20021;-89
2021/07/27 11:20:30;;;;;;;16.27;9.27;;;;;;;;;;5051071;28;20039;-89
2021/07/27 11:22:56;;;;;;;18.17;9.77;;;;;;;;;;5052614;28;20029;-88
2021/07/27 11:25:23;;;;;;;16.65;9.82;;;;;;;;;;5052735;28;20112;-89
2021/07/27 11:27:48;;;;;;;16.15;9.57;;;;;;;;;;5051139;28;20032;-88
2021/07/27 11:30:14;;;;;;;18.75;9.05;;;;;;;;;;5052439;28;20059;-89
2021/07/27 11:32:45;;;;;;;16.88;9.77;;;;;;;;;;5082105;28;20361;-89
2021/07/27 11:35:17;;;;;;;14.68;8.25;;;;;;;;;;5051530;28;20024;-89
2021/07/27 11:37:43;;;;;;;15.80;9.05;;;;;;;;;;5040319;28;20030;-89
2021/07/27 11:40:31;;;;;;;18.50;9.05;;;;;;;;;;5052590;28;20017;-89
2021/07/27 11:43:05;;;;;;;18.02;9.05;;;;;;;;;;5050120;28;20534;-89
2021/07/27 11:45:30;;;;;;;15.02;8.82;;;;;;;;;;5052547;28;20460;-88
2021/07/27 11:47:55;;;;;;;14.23;8.70;;;;;;;;;;5051798;28;20025;-89
2021/07/27 11:50:27;;;;;;;17.40;8.98;;;;;;;;;;5050891;28;20032;-89
2021/07/27 11:52:52;;;;;;;;;;;;;;;;;;5051553;28;20021;-89
2021/07/27 11:55:26;;;;;;;16.70;8.93;;;;;;;;;;5045019;28;20233;-89
2021/07/27 11:57:51;;;;;;;15.30;9.00;;;;;;;;;;5052594;28;20426;-89
2021/07/27 12:00:17;;;;;;;20.50;8.90;;;;;;;;;;5047246;28;20108;-88
2021/07/27 12:02:43;;;;;;;15.20;8.80;;;;;;;;;;5051109;28;20100;-89
2021/07/27 12:05:09;;;;;;;15.10;10.10;;;;;;;;;;5041387;28;20025;-89
2021/07/27 12:07:34;;;;;;;15.35;9.15;;;;;;;;;;5084415;28;20489;-89
2021/07/27 12:09:59;;;;;;;22.63;9.52;;;;;;;;;;5050962;28;20606;-89
2021/07/27 12:12:24;;;;;;;15.35;7.80;;;;;;;;;;5053658;28;20107;-89
2021/07/27 12:14:50;;;;;;;14.90;8.63;;;;;;;;;;5055787;28;20401;-88
2021/07/27 12:17:15;;;;;;;18.42;8.60;;;;;;;;;;5054466;28;20025;-89
2021/07/27 12:19:41;;;;;;;15.77;8.48;;;;;;;;;;5055305;28;20490;-89
2021/07/27 12:22:07;;;;;;;17.30;8.02;;;;;;;;;;5087645;28;20051;-89
2021/07/27 12:24:32;;;;;;;21.55;9.15;;;;;;;;;;5053318;28;20045;-89
2021/07/27 12:26:58;;;;;;;15.55;8.05;;;;;;;;;;5048739;28;20021;-89
2021/07/27 12:29:23;;;;;;;15.05;9.65;;;;;;;;;;5054434;28;20068;-89
2021/07/27 12:31:48;;;;;;;14.75;7.72;;;;;;;;;;5054730;28;20056;-89
2021/07/27 12:34:14;;;;;;;14.20;7.88;;;;;;;;;;5055790;28;20096;-88
2021/07/27 12:36:39;;;;;;;15.32;7.55;;;;;;;;;;5054142;28;20013;-89
2021/07/27 12:39:05;;;;;;;15.23;7.35;;;;;;;;;;5055761;28;20017;-89
2021/07/27 12:41:30;;;;;;;12.80;7.30;;;;;;;;;;5055578;28;20050;-89
2021/07/27 12:43:55;;;;;;;19.98;8.27;;;;;;;;;;5053747;28;20037;-89
2021/07/27 12:46:24;;;;;;;18.17;8.68;;;;;;;;;;5055466;28;20017;-89
2021/07/27 12:48:50;;;;;;;15.25;8.02;;;;;;;;;;5053719;28;20040;-89
2021/07/27 12:51:16;;;;;;;16.20;8.77;;;;;;;;;;5054205;28;20480;-88
2021/07/27 12:53:42;;;;;;;15.23;7.43;;;;;;;;;;5054425;28;20013;-89
2021/07/27 12:56:07;;;;;;;18.02;7.85;;;;;;;;;;5049315;28;20021;-88
2021/07/27 12:58:32;;;;;;;15.43;8.80;;;;;;;;;;5052930;28;20066;-89
2021/07/27 13:00:57;;;;;;;20.73;8.45;;;;;;;;;;5053860;28;20068;-89
2021/07/27 13:03:23;;;;;;;14.88;8.73;;;;;;;;;;5055057;28;20025;-88
2021/07/27 13:05:48;;;;;;;18.50;8.68;;;;;;;;;;5055174;28;20021;-89
2021/07/27 13:08:13;;;;;;;16.17;9.30;;;;;;;;;;5053822;28;20499;-89
2021/07/27 13:10:39;;;;;;;15.57;9.73;;;;;;;;;;5054702;28;20048;-89
2021/07/27 13:13:04;;;;;;;16.35;9.32;;;;;;;;;;5053577;28;20423;-89
2021/07/27 13:15:29;;;;;;;23.73;9.73;;;;;;;;;;5053449;28;20483;-89
2021/07/27 13:17:56;;;;;;;12.82;6.15;;;;;;;;;;5054731;28;20519;-89
2021/07/27 13:20:21;;;;;;;11.23;5.00;;;;;;;;;;5054559;28;20033;-88
2021/07/27 13:22:46;;;;;;;6.75;3.85;;;;;;;;;;5086775;28;20088;-89
2021/07/27 13:25:15;;;;;;;6.35;4.32;;;;;;;;;;5054833;28;20025;-89
2021/07/27 13:27:40;;;;;;;11.32;4.22;;;;;;;;;;5052946;28;20032;-88
2021/07/27 13:30:05;;;;;;;11.68;4.72;;;;;;;;;;5053349;28;20029;-89
2021/07/27 13:32:30;;;;;;;8.63;5.45;;;;;;;;;;5052695;28;20021;-87
2021/07/27 13:34:56;;;;;;;8.43;5.72;;;;;;;;;;5054433;28;20021;-89
2021/07/27 13:37:21;;;;;;;10.45;5.88;;;;;;;;;;5053208;28;20047;-89
2021/07/27 13:39:46;;;;;;;10.55;6.90;;;;;;;;;;5047317;28;20084;-89
2021/07/27 13:42:11;;;;;;;11.43;6.50;;;;;;;;;;5054400;28;20025;-89
2021/07/27 13:44:36;;;;;;;13.40;7.65;;;;;;;;;;5053482;28;20078;-89
2021/07/27 13:47:02;;;;;;;12.45;6.78;;;;;;;;;;5052989;28;20107;-89
2021/07/27 13:49:28;;;;;;;12.63;5.65;;;;;;;;;;5052892;28;20116;-89
2021/07/27 13:51:53;;;;;;;9.98;5.20;;;;;;;;;;5054204;28;20059;-89
2021/07/27 13:54:18;;;;;;;9.95;4.93;;;;;;;;;;5053683;28;20032;-88
2021/07/27 13:56:43;;;;;;;9.57;4.40;;;;;;;;;;5052575;28;20043;-89
2021/07/27 13:59:09;;;;;;;6.68;3.90;;;;;;;;;;5052531;28;20509;-89
2021/07/27 14:01:34;;;;;;;6.82;3.60;;;;;;;;;;5048196;28;20384;-89
2021/07/27 14:03:59;;;;;;;7.93;3.38;;;;;;;;;;5053905;28;20029;-89
2021/07/27 14:06:24;;;;;;;6.15;3.35;;;;;;;;;;5050253;28;20032;-89
2021/07/27 14:08:49;;;;;;;7.00;3.92;;;;;;;;;;5052589;28;20836;-88
2021/07/27 14:11:15;;;;;;;8.35;4.25;;;;;;;;;;5052689;28;20025;-89
2021/07/27 14:13:40;;;;;;;11.13;4.57;;;;;;;;;;5052770;28;20087;-89
2021/07/27 14:16:05;;;;;;;9.30;4.47;;;;;;;;;;5052896;28;20048;-89
2021/07/27 14:18:31;;;;;;;10.60;4.78;;;;;;;;;;5052546;28;20474;-89
2021/07/27 14:20:56;;;;;;;7.68;4.57;;;;;;;;;;5052654;28;20041;-88
2021/07/27 14:23:21;;;;;;;7.55;4.53;;;;;;;;;;5052344;28;20025;-89
2021/07/27 14:25:46;;;;;;;9.93;5.65;;;;;;;;;;5052745;28;20029;-89
2021/07/27 14:28:11;;;;;;;12.68;5.22;;;;;;;;;;5057829;28;20119;-89
2021/07/27 14:30:37;;;;;;;9.93;5.15;;;;;;;;;;5051221;28;20128;-88
2021/07/27 14:33:02;;;;;;;12.30;5.45;;;;;;;;;;5048563;28;20021;-88
2021/07/27 14:35:27;;;;;;;10.73;5.53;;;;;;;;;;5043569;28;20384;-88
2021/07/27 14:37:52;;;;;;;9.82;5.65;;;;;;;;;;5051217;28;20028;-88